Time;durP1;ratioP1;P1;durP2;ratioP2;P2;SDS_P1;SDS_P2;PMS_P1;PMS_P2;Temp;Humidity;BMP_temperature;BMP_pressure;BME280_temperature;BME280_humidity;BME280_pressure;Samples;Min_cycle;Max_cycle;Signal;HPM_P1;HPM_P2
2023/01/02 00:01:32;;;;;;;4.47;1.30;;;12.30;91.20;;;;;;5033927;28;20061;-78
2023/01/02 00:03:57;;;;;;;2.78;1.20;;;12.30;91.20;;;;;;5034052;28;20430;-78
2023/01/02 00:06:23;;;;;;;2.90;1.20;;;12.30;91.30;;;;;;5034007;28;20029;-78
2023/01/02 00:08:49;;;;;;;3.25;1.30;;;12.30;91.20;;;;;;5034122;28;20056;-76
2023/01/02 00:11:15;;;;;;;3.00;1.48;;;12.30;91.30;;;;;;5033794;28;20025;-77
2023/01/02 00:13:41;;;;;;;4.10;1.50;;;12.30;91.30;;;;;;5032841;28;20025;-76
2023/01/02 00:16:07;;;;;;;3.25;1.30;;;12.30;91.30;;;;;;5032630;28;20442;-77
2023/01/02 00:18:33;;;;;;;2.30;1.10;;;12.30;91.30;;;;;;5032973;28;20026;-76
2023/01/02 00:21:03;;;;;;;2.45;1.20;;;12.30;91.30;;;;;;5052106;28;20487;-76
2023/01/02 00:23:30;;;;;;;4.00;1.42;;;12.20;91.30;;;;;;5053454;28;20041;-77
2023/01/02 00:25:55;;;;;;;2.50;1.40;;;12.30;91.30;;;;;;5053519;28;20021;-78
2023/01/02 00:28:21;;;;;;;2.55;1.20;;;12.30;91.30;;;;;;5052203;28;20028;-77
2023/01/02 00:30:46;;;;;;;3.13;1.20;;;12.30;91.30;;;;;;5053159;28;20472;-78
2023/01/02 00:33:12;;;;;;;3.30;1.23;;;12.30;91.30;;;;;;5052260;28;20043;-78
2023/01/02 00:35:38;;;;;;;1.98;1.00;;;12.30;91.30;;;;;;5052153;28;20175;-77
2023/01/02 00:38:04;;;;;;;3.72;1.42;;;12.30;91.30;;;;;;5053433;28;20546;-75
2023/01/02 00:40:29;;;;;;;3.03;1.33;;;12.30;91.30;;;;;;5053271;28;20035;-77
2023/01/02 00:42:55;;;;;;;3.88;1.42;;;12.30;91.30;;;;;;5051786;28;20124;-78
2023/01/02 00:45:20;;;;;;;4.03;1.50;;;12.30;91.30;;;;;;5051941;28;20033;-78
2023/01/02 00:47:46;;;;;;;3.90;1.65;;;12.30;91.30;;;;;;5052051;28;20549;-77
2023/01/02 00:50:11;;;;;;;3.83;1.50;;;12.30;91.30;;;;;;5051618;28;20463;-77
2023/01/02 00:52:36;;;;;;;3.45;1.50;;;12.30;91.30;;;;;;5052361;28;20028;-78
2023/01/02 00:55:02;;;;;;;2.75;1.55;;;12.30;91.30;;;;;;5052980;28;20063;-77
2023/01/02 00:57:28;;;;;;;4.18;1.65;;;12.30;91.30;;;;;;5051743;28;20098;-78
2023/01/02 00:59:53;;;;;;;3.60;1.40;;;12.30;91.30;;;;;;5052757;28;20029;-75
2023/01/02 01:02:19;;;;;;;3.78;1.45;;;12.30;91.30;;;;;;5051614;28;20040;-76
2023/01/02 01:04:44;;;;;;;2.95;1.40;;;12.30;91.30;;;;;;5051512;28;20697;-76
2023/01/02 01:07:10;;;;;;;3.70;1.60;;;12.30;91.30;;;;;;5051435;28;20032;-77
2023/01/02 01:09:35;;;;;;;2.70;1.23;;;12.30;91.30;;;;;;5052528;28;20422;-77
2023/01/02 01:12:01;;;;;;;4.35;1.38;;;12.30;91.30;;;;;;5051409;28;20032;-77
2023/01/02 01:14:26;;;;;;;3.60;1.52;;;12.30;91.40;;;;;;5051611;28;20028;-76
2023/01/02 01:16:52;;;;;;;3.35;1.50;;;12.30;91.30;;;;;;5052642;28;20033;-78
2023/01/02 01:19:17;;;;;;;4.97;1.70;;;12.30;91.30;;;;;;5052835;28;20076;-77
2023/01/02 01:21:43;;;;;;;3.25;1.67;;;12.30;91.30;;;;;;5051114;28;20025;-77
2023/01/02 01:24:08;;;;;;;4.95;1.58;;;12.30;91.30;;;;;;5052575;28;20049;-77
2023/01/02 01:26:34;;;;;;;4.00;1.92;;;12.30;91.30;;;;;;5052066;28;20033;-78
2023/01/02 01:29:00;;;;;;;3.65;1.52;;;12.30;91.30;;;;;;5051134;28;20353;-78
2023/01/02 01:31:26;;;;;;;3.00;1.33;;;12.30;91.30;;;;;;5051127;28;20027;-76
2023/01/02 01:33:51;;;;;;;3.33;1.40;;;12.30;91.30;;;;;;5051155;28;20116;-78
2023/01/02 01:36:20;;;;;;;2.45;1.30;;;12.30;91.30;;;;;;5052364;28;20035;-77
2023/01/02 01:38:46;;;;;;;3.13;1.60;;;12.30;91.30;;;;;;5052294;28;20031;-75
2023/01/02 01:41:14;;;;;;;2.42;1.40;;;12.30;91.30;;;;;;5050856;28;20036;-78
2023/01/02 01:43:49;;;;;;;4.30;1.40;;;12.30;91.30;;;;;;5051036;28;20035;-78
2023/01/02 01:46:31;;;;;;;3.92;1.52;;;12.30;91.30;;;;;;5052234;28;20098;-77
2023/01/02 01:49:03;;;;;;;3.53;1.40;;;12.30;91.30;;;;;;5050800;28;20051;-77
2023/01/02 01:51:34;;;;;;;3.28;1.40;;;12.30;91.30;;;;;;5052389;28;20096;-77
2023/01/02 01:54:11;;;;;;;3.22;1.58;;;12.30;91.30;;;;;;5052594;28;20117;-77
2023/01/02 01:56:45;;;;;;;3.97;1.40;;;12.30;91.30;;;;;;5052204;28;20104;-78
2023/01/02 01:59:11;;;;;;;3.38;1.60;;;12.30;91.30;;;;;;5052237;28;20044;-78
2023/01/02 02:01:38;;;;;;;3.45;1.48;;;12.30;91.30;;;;;;5050732;28;20115;-79
2023/01/02 02:04:04;;;;;;;3.05;1.50;;;12.30;91.30;;;;;;5055096;28;20467;-77
2023/01/02 02:06:29;;;;;;;3.92;1.42;;;12.30;91.30;;;;;;5055142;28;20029;-77
2023/01/02 02:09:24;;;;;;;3.92;1.42;;;12.30;91.30;;;;;;5054822;28;20021;-78
2023/01/02 02:11:53;;;;;;;2.90;1.38;;;12.30;91.30;;;;;;5055207;28;20029;-75
2023/01/02 02:14:18;;;;;;;2.55;1.60;;;12.30;91.30;;;;;;5055834;28;20476;-77
2023/01/02 02:17:15;;;;;;;4.15;1.42;;;12.30;91.30;;;;;;5054942;28;20036;-79
2023/01/02 02:19:52;;;;;;;3.42;1.50;;;12.30;91.30;;;;;;5054690;28;20040;-78
2023/01/02 02:22:49;;;;;;;2.35;1.50;;;12.30;91.30;;;;;;5054490;28;20032;-78
2023/01/02 02:25:30;;;;;;;3.60;1.63;;;12.30;91.60;;;;;;5055302;28;20087;-77
2023/01/02 02:28:14;;;;;;;3.33;1.42;;;12.30;91.30;;;;;;5054533;28;20502;-77
2023/01/02 02:30:59;;;;;;;3.63;1.70;;;12.30;91.30;;;;;;5054216;28;20035;-78
2023/01/02 02:33:25;;;;;;;3.83;1.42;;;12.40;91.40;;;;;;5055731;28;20056;-77
2023/01/02 02:36:04;;;;;;;5.85;1.70;;;12.30;91.40;;;;;;5055663;28;20491;-78
2023/01/02 02:38:57;;;;;;;3.08;1.55;;;12.30;91.40;;;;;;5054657;28;20029;-76
2023/01/02 02:41:44;;;;;;;2.92;1.30;;;12.30;91.40;;;;;;5041571;28;20040;-78
2023/01/02 02:44:36;;;;;;;3.10;1.52;;;12.30;91.40;;;;;;5054290;28;20021;-77
2023/01/02 02:47:07;;;;;;;3.33;1.60;;;12.30;91.40;;;;;;5055484;28;20021;-78
2023/01/02 02:49:52;;;;;;;4.60;2.03;;;12.30;91.40;;;;;;5055200;28;20033;-78
2023/01/02 02:52:27;;;;;;;4.13;1.85;;;12.30;91.40;;;;;;5053888;28;20562;-76
2023/01/02 02:55:07;;;;;;;3.28;1.50;;;12.30;91.40;;;;;;5055257;28;20074;-77
2023/01/02 02:57:33;;;;;;;4.35;1.60;;;12.30;91.40;;;;;;5055295;28;20095;-77
2023/01/02 02:59:59;;;;;;;2.78;1.75;;;12.30;91.40;;;;;;5053918;28;20032;-77
2023/01/02 03:02:24;;;;;;;4.43;1.80;;;12.30;91.40;;;;;;5054913;28;20024;-77
2023/01/02 03:04:56;;;;;;;4.47;1.58;;;12.30;91.50;;;;;;5055193;28;20058;-77
2023/01/02 03:07:45;;;;;;;3.58;1.80;;;12.30;91.50;;;;;;5053809;28;20033;-78
2023/01/02 03:10:42;;;;;;;3.78;1.55;;;12.30;91.50;;;;;;5053813;28;20029;-77
2023/01/02 03:13:16;;;;;;;3.63;1.45;;;12.30;91.50;;;;;;5053743;28;20526;-76
2023/01/02 03:16:07;;;;;;;3.47;1.30;;;12.30;91.50;;;;;;5053314;28;20498;-77
2023/01/02 03:18:58;;;;;;;4.30;1.75;;;12.40;91.50;;;;;;5053650;28;20025;-78
2023/01/02 03:21:30;;;;;;;3.63;1.40;;;12.40;91.50;;;;;;5053493;28;20484;-77
2023/01/02 03:23:59;;;;;;;3.28;1.45;;;12.30;91.40;;;;;;5054906;28;20029;-77
2023/01/02 03:26:29;;;;;;;3.72;1.50;;;12.40;91.50;;;;;;5053228;28;20032;-78
2023/01/02 03:29:00;;;;;;;3.58;1.65;;;12.30;91.40;;;;;;5053327;28;20551;-79
2023/01/02 03:31:29;;;;;;;3.40;1.50;;;12.30;91.40;;;;;;5054495;28;20024;-77
2023/01/02 03:34:02;;;;;;;3.10;1.40;;;12.30;91.40;;;;;;5054828;28;20029;-77
2023/01/02 03:36:30;;;;;;;3.63;1.40;;;12.30;91.40;;;;;;5053338;28;20032;-77
2023/01/02 03:39:15;;;;;;;3.42;1.45;;;12.30;91.40;;;;;;5054421;28;20036;-77
2023/01/02 03:41:46;;;;;;;3.88;1.77;;;12.40;91.40;;;;;;5054314;28;20560;-75
2023/01/02 03:44:13;;;;;;;2.97;1.33;;;12.40;91.40;;;;;;5053130;28;20039;-76
2023/01/02 03:46:49;;;;;;;3.80;1.80;;;12.30;91.40;;;;;;5053076;28;20027;-77
2023/01/02 03:49:21;;;;;;;2.67;1.40;;;12.40;91.40;;;;;;5055264;28;20135;-76
2023/01/02 03:51:47;;;;;;;4.72;1.70;;;12.30;91.30;;;;;;5053914;28;20017;-76
2023/01/02 03:54:14;;;;;;;3.53;1.40;;;12.30;91.30;;;;;;5053965;28;20028;-76
2023/01/02 03:56:51;;;;;;;3.47;1.48;;;12.30;91.30;;;;;;5050088;28;20463;-76
2023/01/02 03:59:44;;;;;;;4.75;1.50;;;12.30;91.30;;;;;;5048637;28;20487;-76
2023/01/02 04:02:44;;;;;;;3.88;1.80;;;12.40;91.40;;;;;;5037805;28;20036;-76
2023/01/02 04:05:38;;;;;;;3.20;1.50;;;12.40;91.40;;;;;;4995201;28;20052;-76
2023/01/02 04:08:12;;;;;;;3.13;1.48;;;12.30;91.30;;;;;;5024917;28;20147;-77
2023/01/02 04:10:39;;;;;;;4.90;1.65;;;12.40;91.40;;;;;;5032124;28;20431;-75
2023/01/02 04:13:15;;;;;;;3.45;1.40;;;12.40;91.40;;;;;;5032547;28;20026;-76
2023/01/02 04:15:43;;;;;;;4.15;1.40;;;12.40;91.40;;;;;;5032456;28;20025;-76
2023/01/02 04:18:14;;;;;;;4.53;1.70;;;12.30;91.40;;;;;;5033659;28;20484;-76
2023/01/02 04:20:45;;;;;;;2.58;1.27;;;12.30;91.40;;;;;;5033279;28;20036;-76
2023/01/02 04:23:28;;;;;;;3.22;1.40;;;12.40;91.40;;;;;;5033521;28;20045;-75
2023/01/02 04:25:55;;;;;;;3.15;1.50;;;12.40;91.40;;;;;;5031520;28;20028;-76
2023/01/02 04:28:27;;;;;;;3.95;1.55;;;12.40;91.40;;;;;;5033450;28;20387;-76
2023/01/02 04:31:04;;;;;;;4.57;1.75;;;12.40;91.40;;;;;;5033149;28;20026;-76
2023/01/02 04:33:33;;;;;;;3.42;1.20;;;12.40;91.40;;;;;;5032239;28;20527;-76
2023/01/02 04:36:07;;;;;;;2.33;1.30;;;12.40;91.40;;;;;;5032064;28;20585;-76
2023/01/02 04:38:32;;;;;;;3.80;1.40;;;12.40;91.40;;;;;;5033251;28;20017;-75
2023/01/02 04:40:58;;;;;;;3.13;1.42;;;12.30;91.40;;;;;;5032942;28;20113;-76
2023/01/02 04:43:23;;;;;;;2.85;1.40;;;12.40;91.40;;;;;;5032080;28;20542;-76
2023/01/02 04:45:49;;;;;;;4.32;1.65;;;12.40;91.40;;;;;;5032825;28;20498;-76
2023/01/02 04:48:16;;;;;;;3.70;1.63;;;12.40;91.40;;;;;;5033138;28;20021;-77
2023/01/02 04:50:42;;;;;;;4.15;1.60;;;12.40;91.40;;;;;;5032508;28;20060;-77
2023/01/02 04:53:09;;;;;;;2.50;1.27;;;12.40;91.40;;;;;;5033002;28;20037;-77
2023/01/02 04:55:35;;;;;;;5.45;1.50;;;12.40;91.40;;;;;;5031702;28;20399;-75
2023/01/02 04:58:01;;;;;;;4.90;1.60;;;12.40;91.40;;;;;;5032992;28;20103;-77
2023/01/02 05:00:26;;;;;;;3.30;1.60;;;12.30;91.40;;;;;;5031462;28;20021;-76
2023/01/02 05:02:52;;;;;;;4.18;1.60;;;12.40;91.40;;;;;;5031259;28;20030;-76
2023/01/02 05:05:17;;;;;;;2.97;1.50;;;12.30;91.40;;;;;;5031419;28;20476;-77
2023/01/02 05:07:43;;;;;;;4.10;1.67;;;12.40;91.40;;;;;;5040146;28;20038;-76
2023/01/02 05:10:09;;;;;;;2.83;1.33;;;12.40;91.40;;;;;;5052382;28;20086;-76
2023/01/02 05:12:36;;;;;;;4.35;1.70;;;12.30;91.40;;;;;;5046422;28;20037;-75
2023/01/02 05:15:05;;;;;;;2.78;1.38;;;12.40;91.50;;;;;;5047327;28;20025;-74
2023/01/02 05:17:49;;;;;;;3.95;1.40;;;12.40;91.40;;;;;;5046473;28;20029;-73
2023/01/02 05:20:14;;;;;;;3.08;1.60;;;12.30;91.40;;;;;;5046413;28;20037;-74
2023/01/02 05:25:26;;;;;;;3.40;1.65;;;12.30;91.50;;;;;;5047001;28;20058;-76
2023/01/02 05:27:55;;;;;;;4.25;1.60;;;12.40;91.50;;;;;;5044918;28;20033;-74
2023/01/02 05:30:21;;;;;;;3.08;1.42;;;12.40;91.50;;;;;;5036438;28;20029;-75
2023/01/02 05:32:47;;;;;;;3.92;1.63;;;12.40;91.50;;;;;;5036488;28;20032;-75
2023/01/02 05:35:13;;;;;;;3.30;1.40;;;12.40;91.50;;;;;;5041891;28;20029;-75
2023/01/02 05:37:38;;;;;;;3.88;1.58;;;12.40;91.50;;;;;;5044563;28;20025;-75
2023/01/02 05:40:04;;;;;;;3.08;1.50;;;12.40;91.50;;;;;;5045551;28;20045;-74
2023/01/02 05:42:30;;;;;;;4.07;1.48;;;12.40;91.50;;;;;;5045582;28;20159;-76
2023/01/02 05:44:55;;;;;;;3.05;1.40;;;12.30;91.70;;;;;;5044126;28;20115;-74
2023/01/02 05:47:21;;;;;;;3.75;1.70;;;12.40;91.50;;;;;;5045889;28;20048;-75
2023/01/02 05:49:47;;;;;;;3.38;1.73;;;12.40;91.50;;;;;;5045210;28;20043;-74
2023/01/02 05:52:12;;;;;;;3.67;1.58;;;12.30;91.40;;;;;;5045397;28;20025;-75
2023/01/02 05:54:38;;;;;;;2.65;1.30;;;12.40;91.50;;;;;;5044147;28;20017;-75
2023/01/02 05:57:03;;;;;;;3.67;1.50;;;12.40;91.50;;;;;;5043082;28;20029;-76
2023/01/02 05:59:29;;;;;;;3.53;1.50;;;12.30;91.40;;;;;;5044457;28;20071;-76
2023/01/02 06:01:54;;;;;;;4.13;1.50;;;12.40;91.50;;;;;;5037872;28;20760;-74
2023/01/02 06:04:20;;;;;;;3.40;1.50;;;12.40;91.50;;;;;;5023895;28;20072;-73
2023/01/02 06:06:46;;;;;;;4.38;1.52;;;12.40;91.50;;;;;;5025326;28;20041;-75
2023/01/02 06:09:13;;;;;;;4.50;1.30;;;12.40;91.50;;;;;;5024434;28;20056;-75
2023/01/02 06:11:39;;;;;;;3.45;1.60;;;12.40;91.50;;;;;;5036627;28;20055;-73
2023/01/02 06:14:05;;;;;;;4.45;1.58;;;12.40;91.50;;;;;;5044664;28;20481;-74
2023/01/02 06:16:31;;;;;;;4.30;1.52;;;12.40;91.50;;;;;;5037340;28;20184;-74
2023/01/02 06:18:56;;;;;;;5.43;1.67;;;12.40;91.50;;;;;;5045256;28;20025;-74
2023/01/02 06:21:23;;;;;;;3.08;1.30;;;12.40;91.50;;;;;;5043701;28;20451;-73
2023/01/02 06:23:54;;;;;;;3.70;1.45;;;12.40;91.50;;;;;;5044243;28;20033;-74
2023/01/02 06:26:20;;;;;;;4.15;1.50;;;12.40;91.50;;;;;;5043592;28;20120;-76
2023/01/02 06:28:48;;;;;;;3.08;1.30;;;12.40;91.50;;;;;;5043494;28;20120;-74
2023/01/02 06:31:16;;;;;;;3.80;1.65;;;12.40;91.50;;;;;;5044354;28;20355;-77
2023/01/02 06:33:42;;;;;;;4.55;1.80;;;12.40;91.70;;;;;;5046605;28;20182;-76
2023/01/02 06:36:12;;;;;;;3.13;1.60;;;12.40;91.50;;;;;;5050506;28;20112;-81
2023/01/02 06:38:38;;;;;;;2.53;1.33;;;12.40;91.50;;;;;;5050785;28;20399;-74
2023/01/02 06:41:05;;;;;;;4.00;1.70;;;12.40;91.60;;;;;;5043782;28;20166;-73
2023/01/02 06:43:31;;;;;;;3.25;1.40;;;12.40;91.60;;;;;;5043920;28;20040;-74
2023/01/02 06:46:03;;;;;;;4.07;1.40;;;12.40;91.50;;;;;;5047627;28;20033;-76
2023/01/02 06:48:30;;;;;;;4.35;1.42;;;12.40;91.60;;;;;;5051061;28;20032;-76
2023/01/02 06:50:56;;;;;;;3.00;1.38;;;12.40;91.50;;;;;;5053918;28;20029;-76
2023/01/02 06:53:22;;;;;;;3.03;1.27;;;12.40;91.50;;;;;;5053518;28;20524;-76
2023/01/02 06:55:52;;;;;;;4.32;1.80;;;12.40;91.50;;;;;;5053334;28;20128;-76
2023/01/02 06:58:18;;;;;;;3.63;1.50;;;12.40;91.50;;;;;;5053026;28;20031;-76
2023/01/02 07:00:44;;;;;;;2.83;1.40;;;12.40;91.60;;;;;;5053048;28;20025;-76
2023/01/02 07:03:09;;;;;;;4.03;1.50;;;12.40;91.60;;;;;;5053313;28;20087;-76
2023/01/02 07:05:35;;;;;;;3.92;1.75;;;12.40;91.70;;;;;;5053029;28;20025;-75
2023/01/02 07:08:00;;;;;;;3.35;1.55;;;12.30;91.60;;;;;;5053376;28;20025;-76
2023/01/02 07:10:25;;;;;;;4.50;1.58;;;12.40;91.70;;;;;;5053187;28;20025;-76
2023/01/02 07:12:51;;;;;;;2.75;1.42;;;12.40;91.70;;;;;;5054053;28;20025;-76
2023/01/02 07:15:17;;;;;;;3.33;1.42;;;12.30;91.60;;;;;;5053369;28;20053;-76
2023/01/02 07:17:42;;;;;;;4.25;1.65;;;12.40;91.70;;;;;;5052945;28;20018;-76
2023/01/02 07:20:08;;;;;;;3.92;1.40;;;12.40;91.70;;;;;;5054122;28;20021;-75
2023/01/02 07:22:34;;;;;;;4.00;1.60;;;12.40;91.70;;;;;;5053956;28;20078;-76
2023/01/02 07:25:00;;;;;;;4.10;1.58;;;12.40;91.70;;;;;;5054266;28;20025;-76
2023/01/02 07:27:30;;;;;;;2.85;1.40;;;12.40;91.70;;;;;;5052784;28;20127;-76
2023/01/02 07:29:56;;;;;;;4.07;1.65;;;12.40;91.70;;;;;;5053954;28;20024;-76
2023/01/02 07:32:22;;;;;;;3.03;1.38;;;12.40;91.70;;;;;;5054242;28;20029;-76
2023/01/02 07:34:48;;;;;;;3.78;1.65;;;12.40;91.70;;;;;;5052583;28;20021;-76
2023/01/02 07:37:13;;;;;;;3.25;1.50;;;12.40;91.60;;;;;;5052696;28;20167;-76
2023/01/02 07:39:39;;;;;;;2.92;1.40;;;12.40;91.70;;;;;;5053709;28;20021;-76
2023/01/02 07:42:04;;;;;;;3.70;1.70;;;12.40;91.70;;;;;;5052276;28;20021;-76
2023/01/02 07:44:30;;;;;;;3.10;1.60;;;12.40;91.70;;;;;;5053764;28;20068;-76
2023/01/02 07:46:55;;;;;;;3.88;1.60;;;12.40;91.70;;;;;;5052356;28;20029;-76
2023/01/02 07:49:21;;;;;;;4.60;1.67;;;12.30;91.60;;;;;;5052306;28;20076;-76
2023/01/02 07:51:46;;;;;;;4.07;1.85;;;12.40;91.70;;;;;;5052076;28;20112;-76
2023/01/02 07:54:12;;;;;;;4.32;1.80;;;12.40;91.70;;;;;;5053731;28;20079;-76
2023/01/02 07:56:37;;;;;;;4.82;1.77;;;12.40;91.70;;;;;;5053531;28;20446;-75
2023/01/02 07:59:03;;;;;;;4.30;1.98;;;12.40;91.60;;;;;;5052015;28;20074;-76
2023/01/02 08:01:28;;;;;;;4.65;1.90;;;12.40;91.60;;;;;;5052014;28;20039;-75
2023/01/02 08:03:54;;;;;;;5.07;1.90;;;12.40;91.70;;;;;;5053278;28;20521;-76
2023/01/02 08:06:19;;;;;;;4.25;1.65;;;12.40;91.70;;;;;;5052112;28;20029;-77
2023/01/02 08:08:45;;;;;;;5.05;2.20;;;12.40;91.70;;;;;;5053114;28;20027;-77
2023/01/02 08:11:14;;;;;;;4.28;1.80;;;12.40;91.70;;;;;;5053093;28;20074;-76
2023/01/02 08:13:39;;;;;;;5.22;2.25;;;12.40;91.70;;;;;;5053049;28;20040;-77
2023/01/02 08:16:10;;;;;;;4.70;1.95;;;12.40;91.70;;;;;;5053513;28;20029;-77
2023/01/02 08:18:36;;;;;;;4.32;1.73;;;12.40;91.70;;;;;;5053120;28;20032;-76
2023/01/02 08:21:03;;;;;;;3.85;1.67;;;12.40;91.70;;;;;;5052781;28;20033;-76
2023/01/02 08:23:29;;;;;;;4.75;1.75;;;12.40;91.70;;;;;;5053059;28;20052;-76
2023/01/02 08:25:58;;;;;;;4.13;1.70;;;12.30;91.70;;;;;;5051609;28;20068;-76
2023/01/02 08:28:24;;;;;;;4.90;1.85;;;12.40;91.70;;;;;;5053162;28;20024;-76
2023/01/02 08:30:50;;;;;;;6.05;2.00;;;12.40;91.70;;;;;;5051329;28;20084;-76
2023/01/02 08:33:15;;;;;;;3.78;1.65;;;12.40;91.70;;;;;;5051738;28;20499;-77
2023/01/02 08:35:41;;;;;;;5.03;1.90;;;12.40;91.70;;;;;;5051635;28;20017;-76
2023/01/02 08:38:07;;;;;;;3.10;1.70;;;12.40;91.70;;;;;;5052869;28;20108;-76
2023/01/02 08:40:32;;;;;;;4.25;1.73;;;12.40;91.70;;;;;;5051260;28;20028;-76
2023/01/02 08:42:57;;;;;;;4.28;1.70;;;12.40;91.70;;;;;;5052450;28;20506;-76
2023/01/02 08:45:23;;;;;;;5.95;1.95;;;12.40;91.70;;;;;;5052577;28;20028;-76
2023/01/02 08:47:48;;;;;;;4.25;1.90;;;12.40;91.70;;;;;;5052468;28;20025;-76
2023/01/02 08:50:14;;;;;;;3.13;1.50;;;12.40;91.70;;;;;;5052317;28;20115;-76
2023/01/02 08:52:39;;;;;;;3.78;1.73;;;12.50;91.70;;;;;;5052200;28;20033;-76
2023/01/02 08:55:05;;;;;;;3.20;1.50;;;12.40;91.60;;;;;;5051308;28;20455;-76
2023/01/02 08:57:31;;;;;;;3.20;1.60;;;12.40;91.60;;;;;;5052553;28;20060;-77
2023/01/02 08:59:57;;;;;;;4.45;1.85;;;12.40;91.60;;;;;;5051873;28;20551;-77
2023/01/02 09:02:22;;;;;;;3.67;1.52;;;12.40;91.60;;;;;;5052160;28;20063;-77
2023/01/02 09:04:48;;;;;;;3.55;1.45;;;12.40;91.60;;;;;;5052064;28;20479;-76
2023/01/02 09:07:13;;;;;;;3.72;1.80;;;12.40;91.60;;;;;;5052188;28;20024;-76
2023/01/02 09:09:39;;;;;;;3.92;1.63;;;12.40;91.60;;;;;;5050901;28;20037;-76
2023/01/02 09:12:05;;;;;;;3.95;1.60;;;12.50;91.60;;;;;;5051594;28;20605;-76
2023/01/02 09:14:30;;;;;;;4.00;1.70;;;12.40;91.50;;;;;;5052100;28;20032;-77
2023/01/02 09:16:58;;;;;;;3.05;1.40;;;12.40;91.50;;;;;;5050796;28;20029;-76
2023/01/02 09:19:25;;;;;;;3.70;1.92;;;12.40;91.50;;;;;;5050696;28;20027;-76
2023/01/02 09:21:50;;;;;;;4.85;2.00;;;12.40;91.50;;;;;;5051709;28;20036;-77
2023/01/02 09:24:16;;;;;;;4.88;1.83;;;12.50;91.50;;;;;;5050793;28;20029;-77
2023/01/02 09:26:42;;;;;;;2.90;1.52;;;12.40;91.50;;;;;;5051902;28;20071;-77
2023/01/02 09:29:09;;;;;;;3.35;1.60;;;12.40;91.50;;;;;;5050696;28;20021;-76
2023/01/02 09:31:35;;;;;;;3.90;1.60;;;12.40;91.50;;;;;;5051774;28;20070;-76
2023/01/02 09:34:01;;;;;;;4.05;1.60;;;12.40;91.50;;;;;;5051790;28;20033;-76
2023/01/02 09:36:26;;;;;;;4.18;1.55;;;12.40;91.50;;;;;;5050770;28;20059;-77
2023/01/02 09:38:53;;;;;;;4.20;1.60;;;12.50;91.50;;;;;;5050318;28;20116;-77
2023/01/02 09:41:34;;;;;;;4.20;1.58;;;12.50;91.50;;;;;;5051529;28;20093;-76
2023/01/02 09:44:20;;;;;;;2.90;1.52;;;12.50;91.50;;;;;;5050415;28;20029;-77
2023/01/02 09:46:52;;;;;;;3.22;1.42;;;12.40;91.40;;;;;;5051552;28;20061;-76
2023/01/02 09:49:24;;;;;;;2.80;1.45;;;12.50;91.50;;;;;;5051682;28;20025;-77
2023/01/02 09:51:50;;;;;;;3.75;1.50;;;12.50;91.50;;;;;;5050090;28;20070;-76
2023/01/02 09:54:27;;;;;;;3.13;1.50;;;12.50;91.50;;;;;;5050540;28;20029;-77
2023/01/02 09:57:23;;;;;;;3.13;1.50;;;12.50;91.40;;;;;;5050274;28;20605;-77
2023/01/02 10:00:17;;;;;;;3.00;1.40;;;12.50;91.40;;;;;;5051226;28;20116;-77
2023/01/02 10:02:51;;;;;;;3.08;1.50;;;12.40;91.40;;;;;;5051159;28;20116;-78
2023/01/02 10:05:28;;;;;;;2.70;1.40;;;12.50;91.40;;;;;;5051424;28;20376;-76
2023/01/02 10:08:05;;;;;;;4.60;1.83;;;12.50;91.40;;;;;;5051659;28;20018;-78
2023/01/02 10:11:01;;;;;;;3.15;1.40;;;12.50;91.40;;;;;;5051361;28;20025;-78
2023/01/02 10:13:44;;;;;;;3.15;1.55;;;12.40;91.40;;;;;;5051608;28;20025;-77
2023/01/02 10:16:17;;;;;;;3.80;1.50;;;12.50;91.40;;;;;;5051454;28;20479;-80
2023/01/02 10:18:46;;;;;;;3.03;1.75;;;12.50;91.40;;;;;;5051390;28;20392;-77
2023/01/02 10:21:24;;;;;;;2.85;1.30;;;12.50;91.40;;;;;;5049982;28;20552;-77
2023/01/02 10:23:55;;;;;;;3.08;1.40;;;12.50;91.40;;;;;;5050180;28;20399;-77
2023/01/02 10:26:24;;;;;;;3.97;1.40;;;12.50;91.40;;;;;;5055315;28;20025;-77
2023/01/02 10:29:05;;;;;;;4.00;1.50;;;12.50;91.40;;;;;;5055101;28;20092;-77
2023/01/02 10:31:43;;;;;;;3.53;1.42;;;12.50;91.40;;;;;;5055061;28;20059;-80
2023/01/02 10:34:21;;;;;;;2.88;1.42;;;12.50;91.40;;;;;;5055274;28;20078;-77
2023/01/02 10:36:47;;;;;;;3.47;1.65;;;12.50;91.40;;;;;;5053813;28;20028;-77
2023/01/02 10:39:19;;;;;;;3.03;1.40;;;12.50;91.40;;;;;;5053861;28;20593;-76
2023/01/02 10:41:49;;;;;;;3.10;1.50;;;12.50;91.50;;;;;;5053634;28;20162;-79
2023/01/02 10:44:47;;;;;;;4.10;1.95;;;12.50;91.40;;;;;;5053980;28;20028;-77
2023/01/02 10:47:15;;;;;;;3.25;1.58;;;12.50;91.40;;;;;;5010869;28;20606;-77
2023/01/02 10:49:42;;;;;;;3.10;1.50;;;12.50;91.50;;;;;;5053322;28;20055;-77
2023/01/02 10:52:30;;;;;;;2.97;1.40;;;12.40;91.40;;;;;;5054666;28;20409;-78
2023/01/02 10:54:57;;;;;;;3.63;1.63;;;12.50;91.50;;;;;;5054589;28;20028;-79
2023/01/02 10:57:43;;;;;;;3.42;1.40;;;12.50;91.50;;;;;;5054947;28;20567;-77
2023/01/02 11:00:17;;;;;;;1.92;1.30;;;12.50;91.50;;;;;;5054577;28;20494;-78
2023/01/02 11:02:50;;;;;;;3.63;1.50;;;12.50;91.50;;;;;;5053258;28;20418;-77
2023/01/02 11:05:30;;;;;;;3.25;1.40;;;12.50;91.50;;;;;;5054566;28;20496;-76
2023/01/02 11:07:57;;;;;;;4.05;1.50;;;12.50;91.50;;;;;;5053283;28;20029;-76
2023/01/02 11:10:31;;;;;;;2.33;1.30;;;12.50;91.50;;;;;;5054701;28;20388;-77
2023/01/02 11:13:02;;;;;;;3.22;1.40;;;12.50;91.50;;;;;;5053112;28;20056;-77
2023/01/02 11:15:33;;;;;;;3.10;1.60;;;12.50;91.50;;;;;;5053432;28;20513;-77
2023/01/02 11:17:59;;;;;;;3.40;1.50;;;12.40;91.50;;;;;;5053134;28;20033;-77
2023/01/02 11:20:32;;;;;;;3.30;1.40;;;12.40;91.50;;;;;;5053091;28;20029;-77
2023/01/02 11:23:00;;;;;;;3.22;1.58;;;12.50;91.50;;;;;;5052755;28;20067;-76
2023/01/02 11:25:39;;;;;;;2.72;1.38;;;12.50;91.50;;;;;;5052872;28;20112;-78
2023/01/02 11:28:05;;;;;;;2.40;1.25;;;12.50;91.50;;;;;;5054146;28;20021;-77
2023/01/02 11:30:44;;;;;;;2.50;1.25;;;12.50;91.50;;;;;;5052792;28;20021;-77
2023/01/02 11:33:13;;;;;;;3.83;1.20;;;12.50;91.50;;;;;;5054131;28;20032;-77
2023/01/02 11:36:05;;;;;;;2.58;1.42;;;12.50;91.50;;;;;;5052839;28;20028;-78
2023/01/02 11:38:52;;;;;;;3.60;1.50;;;12.50;91.40;;;;;;5054965;28;20029;-77
2023/01/02 11:41:24;;;;;;;2.30;1.17;;;12.50;91.40;;;;;;5053272;28;20488;-77
2023/01/02 11:43:58;;;;;;;3.00;1.40;;;12.50;91.40;;;;;;5059724;28;20029;-80
2023/01/02 11:46:32;;;;;;;2.45;1.23;;;12.50;91.40;;;;;;5051274;28;20368;-77
2023/01/02 11:49:16;;;;;;;2.08;1.10;;;12.50;91.40;;;;;;5052875;28;20017;-77
2023/01/02 11:51:42;;;;;;;3.33;1.30;;;12.50;91.40;;;;;;5053439;28;20017;-77
2023/01/02 11:54:14;;;;;;;3.60;1.45;;;12.50;91.40;;;;;;5033904;28;20366;-77
2023/01/02 11:56:43;;;;;;;2.53;1.20;;;12.50;91.40;;;;;;5042449;28;20028;-78
2023/01/02 11:59:17;;;;;;;2.00;1.15;;;12.50;91.60;;;;;;5051582;28;20115;-78
2023/01/02 12:01:46;;;;;;;2.55;1.17;;;12.50;91.40;;;;;;5054015;28;20054;-80
2023/01/02 12:04:12;;;;;;;2.67;1.30;;;12.50;91.40;;;;;;5052579;28;20029;-78
2023/01/02 12:06:50;;;;;;;2.53;1.33;;;12.50;91.30;;;;;;5052341;28;20395;-77
2023/01/02 12:09:52;;;;;;;3.25;1.42;;;12.50;91.30;;;;;;5051014;28;20017;-76
2023/01/02 12:12:28;;;;;;;2.58;1.23;;;12.50;91.30;;;;;;5052242;28;20424;-76
2023/01/02 12:15:05;;;;;;;2.03;1.27;;;12.50;91.30;;;;;;5044680;28;20108;-76
2023/01/02 12:17:41;;;;;;;3.17;1.35;;;12.50;91.30;;;;;;5033603;28;20026;-81
2023/01/02 12:20:25;;;;;;;1.42;1.02;;;12.50;91.30;;;;;;5031489;28;20060;-79
2023/01/02 12:23:26;;;;;;;3.30;1.40;;;12.50;91.30;;;;;;5031558;28;20045;-80
2023/01/02 12:26:14;;;;;;;2.97;1.27;;;12.50;91.30;;;;;;5032763;28;20095;-78
2023/01/02 12:28:52;;;;;;;2.78;1.10;;;12.50;91.30;;;;;;5031233;28;20360;-78
2023/01/02 12:31:21;;;;;;;2.45;1.30;;;12.50;91.30;;;;;;5044903;28;20107;-75
2023/01/02 12:34:00;;;;;;;2.83;1.30;;;12.50;91.30;;;;;;5052517;28;20476;-80
2023/01/02 12:37:04;;;;;;;2.50;1.30;;;12.50;91.30;;;;;;5052185;28;20514;-75
2023/01/02 12:40:02;;;;;;;1.90;0.98;;;12.50;91.30;;;;;;5022199;28;20060;-79
2023/01/02 12:42:42;;;;;;;2.25;1.20;;;12.50;91.30;;;;;;5034773;28;20025;-73
2023/01/02 12:45:31;;;;;;;1.67;1.10;;;12.50;91.30;;;;;;5050016;28;20450;-78
2023/01/02 12:48:32;;;;;;;1.27;0.90;;;12.50;91.20;;;;;;5051179;28;20033;-78
2023/01/02 12:51:05;;;;;;;2.70;1.20;;;12.50;91.20;;;;;;5051548;28;20486;-76
2023/01/02 12:53:54;;;;;;;2.25;1.20;;;12.50;91.20;;;;;;5052379;28;20021;-78
2023/01/02 12:56:37;;;;;;;3.25;1.33;;;12.50;91.20;;;;;;5051263;28;20033;-77
2023/01/02 12:59:34;;;;;;;2.15;1.10;;;12.50;91.20;;;;;;5052232;28;20017;-79
2023/01/02 13:02:37;;;;;;;2.20;1.20;;;12.50;91.20;;;;;;5052312;28;20024;-77
2023/01/02 13:05:14;;;;;;;2.33;1.25;;;12.50;91.20;;;;;;5051942;28;20025;-77
2023/01/02 13:07:54;;;;;;;2.72;1.27;;;12.50;91.20;;;;;;5051177;28;20024;-79
2023/01/02 13:10:23;;;;;;;2.40;1.30;;;12.50;91.20;;;;;;5050982;28;20139;-77
2023/01/02 13:12:50;;;;;;;1.85;1.00;;;12.50;91.20;;;;;;5050791;28;20029;-80